createdAt,value
2022-12-19T00:00:20.459Z,46.90
2022-12-19T00:03:12.535Z,46.80
2022-12-19T00:08:24.717Z,41.40
2022-12-19T00:11:01.026Z,45.60
2022-12-19T00:13:44.883Z,43.00
2022-12-19T00:16:24.014Z,45.30
2022-12-19T00:19:00.406Z,44.70
2022-12-19T00:21:35.092Z,46.70
2022-12-19T00:24:18.413Z,44.00
2022-12-19T00:27:01.419Z,44.70
2022-12-19T00:29:39.182Z,44.40
2022-12-19T00:32:23.082Z,42.10
2022-12-19T00:37:49.246Z,44.00
2022-12-19T00:40:37.016Z,41.00
2022-12-19T00:43:12.238Z,44.20
2022-12-19T00:45:43.949Z,42.80
2022-12-19T00:48:27.188Z,39.40
2022-12-19T00:51:08.695Z,42.80
2022-12-19T00:53:39.973Z,40.00
2022-12-19T00:56:37.076Z,41.10
2022-12-19T00:59:13.537Z,38.70
2022-12-19T01:01:51.253Z,43.50
2022-12-19T01:04:33.374Z,39.20
2022-12-19T01:07:11.888Z,40.30
2022-12-19T01:09:51.639Z,38.50
2022-12-19T01:12:44.048Z,41.20
2022-12-19T01:15:21.068Z,37.20
2022-12-19T01:18:04.883Z,39.70
2022-12-19T01:20:47.519Z,41.30
2022-12-19T01:23:22.633Z,36.80
2022-12-19T01:25:57.524Z,37.70
2022-12-19T01:28:29.377Z,36.50
2022-12-19T01:31:10.092Z,39.20
2022-12-19T01:33:53.856Z,39.20
2022-12-19T01:36:30.714Z,39.50
2022-12-19T01:39:20.939Z,39.60
2022-12-19T01:42:05.469Z,40.40
2022-12-19T01:44:42.741Z,37.50
2022-12-19T01:47:16.038Z,35.70
2022-12-19T01:49:59.093Z,39.20
2022-12-19T01:52:42.689Z,38.00
2022-12-19T01:55:20.179Z,38.60
2022-12-19T01:57:57.057Z,36.30
2022-12-19T02:00:35.426Z,39.70
2022-12-19T02:03:49.526Z,36.90
2022-12-19T02:06:30.382Z,40.20
2022-12-19T02:09:18.588Z,37.10
2022-12-19T02:11:59.341Z,36.30
2022-12-19T02:14:36.961Z,36.60
2022-12-19T02:17:21.139Z,37.10
2022-12-19T02:20:11.168Z,36.80
2022-12-19T02:23:46.443Z,37.20
2022-12-19T02:29:17.934Z,35.80
2022-12-19T02:32:06.571Z,33.90
2022-12-19T02:34:56.819Z,36.70
2022-12-19T02:37:35.884Z,35.80
2022-12-19T02:40:50.939Z,36.90
2022-12-19T02:43:45.629Z,35.20
2022-12-19T02:46:21.454Z,36.40
2022-12-19T02:49:06.802Z,35.20
2022-12-19T02:51:39.418Z,35.60
2022-12-19T02:54:18.512Z,33.50
2022-12-19T02:57:19.117Z,34.80
2022-12-19T03:00:17.212Z,37.20
2022-12-19T03:03:00.771Z,33.80
2022-12-19T03:06:23.736Z,33.30
2022-12-19T03:09:34.591Z,34.30
2022-12-19T03:12:36.548Z,35.50
2022-12-19T03:15:18.458Z,31.60
2022-12-19T03:18:10.105Z,34.80
2022-12-19T03:21:11.855Z,35.70
2022-12-19T03:23:54.981Z,32.80
2022-12-19T03:27:37.535Z,34.10
2022-12-19T03:30:15.240Z,33.80
2022-12-19T03:32:53.961Z,33.30
2022-12-19T03:35:45.486Z,33.10
2022-12-19T03:38:22.683Z,33.00
2022-12-19T03:44:29.085Z,32.10
2022-12-19T03:47:50.433Z,34.20
2022-12-19T03:50:28.560Z,30.90
2022-12-19T03:53:35.296Z,32.80
2022-12-19T03:56:39.828Z,29.90
2022-12-19T03:59:39.264Z,32.50
2022-12-19T04:02:16.259Z,29.90
2022-12-19T04:05:03.409Z,31.50
2022-12-19T04:07:41.882Z,30.10
2022-12-19T04:10:24.309Z,29.60
2022-12-19T04:13:16.278Z,29.60
2022-12-19T04:16:13.372Z,32.60
2022-12-19T04:18:54.201Z,29.90
2022-12-19T04:21:38.368Z,31.30
2022-12-19T04:24:22.016Z,30.80
2022-12-19T04:26:59.491Z,32.70
2022-12-19T04:29:36.969Z,30.70
2022-12-19T04:32:10.966Z,30.40
2022-12-19T04:34:42.986Z,28.80
2022-12-19T04:37:20.492Z,30.00
2022-12-19T04:39:51.746Z,35.00
2022-12-19T04:42:27.628Z,31.80
2022-12-19T04:44:57.725Z,32.20
2022-12-19T04:47:27.261Z,34.70
2022-12-19T04:49:56.903Z,34.00
2022-12-19T04:52:26.477Z,32.00
2022-12-19T04:55:03.503Z,31.10
2022-12-19T04:57:42.238Z,31.00
2022-12-19T05:00:15.980Z,34.20
2022-12-19T05:02:46.038Z,33.40
2022-12-19T05:05:24.508Z,30.50
2022-12-19T05:07:55.608Z,32.60
2022-12-19T05:10:26.947Z,34.90
2022-12-19T05:12:57.927Z,35.60
2022-12-19T05:15:40.519Z,34.60
2022-12-19T05:18:11.096Z,32.50
2022-12-19T05:20:40.600Z,34.20
2022-12-19T05:23:16.312Z,32.90
2022-12-19T05:25:53.993Z,30.30
2022-12-19T05:28:26.717Z,28.90
2022-12-19T05:31:05.973Z,34.80
2022-12-19T05:33:38.890Z,30.90
2022-12-19T05:36:11.762Z,32.30
2022-12-19T05:38:43.972Z,31.60
2022-12-19T05:41:20.837Z,31.40
2022-12-19T05:43:56.496Z,29.70
2022-12-19T05:46:26.319Z,31.70
2022-12-19T05:48:59.562Z,32.00
2022-12-19T05:51:29.855Z,30.60
2022-12-19T05:54:07.992Z,34.10
2022-12-19T05:56:40.969Z,32.30
2022-12-19T05:59:12.055Z,30.80
2022-12-19T06:01:42.766Z,34.90
2022-12-19T06:04:19.807Z,31.10
2022-12-19T06:06:50.189Z,30.80
2022-12-19T06:09:40.837Z,31.90
2022-12-19T06:12:10.948Z,31.40
2022-12-19T06:15:01.407Z,30.60
2022-12-19T06:17:31.404Z,36.10
2022-12-19T06:20:06.977Z,35.80
2022-12-19T06:22:42.501Z,33.90
2022-12-19T06:25:20.376Z,35.50
2022-12-19T06:27:52.909Z,34.90
2022-12-19T06:30:24.938Z,34.70
2022-12-19T06:32:54.625Z,36.60
2022-12-19T06:35:26.949Z,36.00
2022-12-19T06:41:09.869Z,31.00
2022-12-19T06:43:39.059Z,31.80
2022-12-19T06:46:08.887Z,32.60
2022-12-19T06:48:37.939Z,31.70
2022-12-19T06:51:07.433Z,33.40
2022-12-19T06:53:36.320Z,33.50
2022-12-19T06:56:05.563Z,35.50
2022-12-19T06:58:35.157Z,35.20
2022-12-19T07:01:05.279Z,34.70
2022-12-19T07:03:40.372Z,32.90
2022-12-19T07:06:09.258Z,33.90
2022-12-19T07:08:38.208Z,33.30
2022-12-19T07:11:07.091Z,34.10
2022-12-19T07:13:38.419Z,33.30
2022-12-19T07:16:08.885Z,35.20
2022-12-19T07:18:41.080Z,36.00
2022-12-19T07:21:13.834Z,31.80
2022-12-19T07:23:45.934Z,33.00
2022-12-19T07:26:14.963Z,36.30
2022-12-19T07:28:44.829Z,36.30
2022-12-19T07:31:15.988Z,37.10
2022-12-19T07:33:45.217Z,32.90
2022-12-19T07:36:14.300Z,39.80
2022-12-19T07:38:44.535Z,36.70
2022-12-19T07:41:13.486Z,36.70
2022-12-19T07:43:42.346Z,37.40
2022-12-19T07:46:14.364Z,39.80
2022-12-19T07:48:43.498Z,34.80
2022-12-19T07:51:12.357Z,37.10
2022-12-19T07:53:41.187Z,39.80
2022-12-19T07:56:10.067Z,38.20
2022-12-19T07:58:39.548Z,36.50
2022-12-19T08:01:08.762Z,37.80
2022-12-19T08:03:38.126Z,36.50
2022-12-19T08:06:08.218Z,36.60
2022-12-19T08:08:38.036Z,36.50
2022-12-19T08:11:13.404Z,35.50
2022-12-19T08:13:46.500Z,37.30
2022-12-19T08:16:16.636Z,34.80
2022-12-19T08:18:45.872Z,39.50
2022-12-19T08:21:15.108Z,38.60
2022-12-19T08:23:47.416Z,38.30
2022-12-19T08:26:31.256Z,36.50
2022-12-19T08:29:06.761Z,38.10
2022-12-19T08:31:38.131Z,38.50
2022-12-19T08:34:07.136Z,35.90
2022-12-19T08:36:38.621Z,34.80
2022-12-19T08:39:09.060Z,35.60
2022-12-19T08:41:38.005Z,33.90
2022-12-19T08:44:07.450Z,34.30
2022-12-19T08:46:36.426Z,33.70
2022-12-19T08:49:05.450Z,33.60
2022-12-19T08:51:34.891Z,34.50
2022-12-19T08:54:04.070Z,34.00
2022-12-19T08:57:01.833Z,34.10
2022-12-19T08:59:32.145Z,33.20
2022-12-19T09:02:01.815Z,32.80
2022-12-19T09:06:00.194Z,33.50
2022-12-19T09:07:20.062Z,33.00
2022-12-19T09:09:48.957Z,33.90
2022-12-19T09:12:17.930Z,33.80
2022-12-19T09:14:47.050Z,33.90
2022-12-19T09:17:16.221Z,31.90
2022-12-19T09:19:47.582Z,32.80
2022-12-19T09:22:17.370Z,32.40
2022-12-19T09:24:46.606Z,31.80
2022-12-19T09:27:15.716Z,34.40
2022-12-19T09:29:44.718Z,36.10
2022-12-19T09:32:13.696Z,32.90
2022-12-19T09:34:42.665Z,33.70
2022-12-19T09:37:17.000Z,31.30
2022-12-19T09:39:49.067Z,35.20
2022-12-19T09:43:03.423Z,34.70
2022-12-19T09:45:48.975Z,31.10
2022-12-19T09:48:24.697Z,33.60
2022-12-19T09:50:56.975Z,34.40
2022-12-19T09:54:07.112Z,35.30
2022-12-19T09:56:45.908Z,32.50
2022-12-19T09:59:49.969Z,33.40
2022-12-19T10:02:54.411Z,35.00
2022-12-19T10:07:09.302Z,33.00
2022-12-19T10:12:45.129Z,36.00
2022-12-19T10:15:15.628Z,34.40
2022-12-19T10:17:56.805Z,36.50
2022-12-19T10:20:37.082Z,34.60
2022-12-19T10:23:48.408Z,36.60
2022-12-19T10:26:29.816Z,34.90
2022-12-19T10:29:18.951Z,36.60
2022-12-19T10:32:04.419Z,33.80
2022-12-19T10:34:44.672Z,35.70
2022-12-19T10:37:43.826Z,36.50
2022-12-19T10:40:32.219Z,37.70
2022-12-19T10:43:28.676Z,35.40
2022-12-19T10:46:17.078Z,42.50
2022-12-19T10:48:52.710Z,39.20
2022-12-19T10:51:31.977Z,42.60
2022-12-19T10:54:01.604Z,41.20
2022-12-19T10:56:37.442Z,41.70
2022-12-19T10:59:17.927Z,36.40
2022-12-19T11:01:54.171Z,34.70
2022-12-19T11:04:34.593Z,37.90
2022-12-19T11:07:03.752Z,34.40
2022-12-19T11:09:56.372Z,34.40
2022-12-19T11:14:57.699Z,35.60
2022-12-19T11:20:39.186Z,37.20
2022-12-19T11:29:27.285Z,37.50
2022-12-19T11:29:41.737Z,36.00
2022-12-19T11:29:42.410Z,36.20
2022-12-19T11:30:49.022Z,35.30
2022-12-19T11:33:20.501Z,33.10
2022-12-19T11:35:58.909Z,32.90
2022-12-19T11:38:54.255Z,35.90
2022-12-19T11:41:39.098Z,37.10
2022-12-19T11:44:28.941Z,36.10
2022-12-19T11:47:41.454Z,31.90
2022-12-19T11:50:31.185Z,37.30
2022-12-19T11:53:19.293Z,39.10
2022-12-19T11:56:01.526Z,45.10
2022-12-19T11:58:30.568Z,37.20
2022-12-19T12:01:12.752Z,34.60
2022-12-19T12:04:03.799Z,36.80
2022-12-19T12:06:44.261Z,38.80
2022-12-19T12:13:04.137Z,39.10
2022-12-19T12:20:11.265Z,35.80
2022-12-19T12:28:38.957Z,34.70
2022-12-19T12:31:22.735Z,34.70
2022-12-19T12:31:43.274Z,35.50
2022-12-19T12:31:52.736Z,36.80
2022-12-19T12:32:05.066Z,37.50
2022-12-19T12:35:21.480Z,42.90
2022-12-19T12:39:33.630Z,43.00
2022-12-19T12:42:18.367Z,39.20
2022-12-19T12:44:50.789Z,45.60
2022-12-19T12:47:29.070Z,41.70
2022-12-19T12:50:04.457Z,44.30
2022-12-19T12:53:02.646Z,39.60
2022-12-19T12:55:37.441Z,38.50
2022-12-19T12:58:47.134Z,41.10
2022-12-19T13:01:28.908Z,42.30
2022-12-19T13:04:17.952Z,38.90
2022-12-19T13:06:50.280Z,52.30
2022-12-19T13:12:44.526Z,35.60
2022-12-19T13:15:27.621Z,45.20
2022-12-19T13:17:56.575Z,40.90
2022-12-19T13:20:27.622Z,37.30
2022-12-19T13:23:19.457Z,40.70
2022-12-19T13:25:54.055Z,47.40
2022-12-19T13:28:23.113Z,52.80
2022-12-19T13:31:19.879Z,41.90
2022-12-19T13:33:55.828Z,39.80
2022-12-19T13:39:47.802Z,47.60
2022-12-19T13:40:08.815Z,52.30
2022-12-19T13:43:25.577Z,42.50
2022-12-19T13:46:03.322Z,46.40
2022-12-19T13:48:32.547Z,42.80
2022-12-19T13:51:10.713Z,42.10
2022-12-19T13:53:42.937Z,52.00
2022-12-19T14:01:30.833Z,35.00
2022-12-19T14:04:09.484Z,35.90
2022-12-19T14:06:47.550Z,41.20
2022-12-19T14:11:30.476Z,39.90
2022-12-19T14:13:57.508Z,41.40
2022-12-19T14:15:52.231Z,38.80
2022-12-19T14:18:42.688Z,39.70
2022-12-19T14:22:03.652Z,40.10
2022-12-19T14:24:17.897Z,43.20
2022-12-19T14:28:17.073Z,44.90
2022-12-19T14:30:27.465Z,62.70
2022-12-19T14:33:45.424Z,54.60
2022-12-19T14:36:09.840Z,47.00
2022-12-19T14:39:22.751Z,49.10
2022-12-19T14:41:48.580Z,48.70
2022-12-19T14:52:34.427Z,44.10
2022-12-19T14:54:18.173Z,44.10
2022-12-19T14:54:33.974Z,66.50
2022-12-19T14:54:46.758Z,58.80
2022-12-19T14:59:43.469Z,45.20
2022-12-19T15:02:33.039Z,52.90
2022-12-19T15:05:16.997Z,46.10
2022-12-19T15:07:54.325Z,52.50
2022-12-19T15:11:03.944Z,47.40
2022-12-19T15:14:55.229Z,47.80
2022-12-19T15:16:31.139Z,44.00
2022-12-19T15:19:03.108Z,41.90
2022-12-19T15:21:32.392Z,43.10
2022-12-19T15:24:01.325Z,45.00
2022-12-19T15:26:35.490Z,39.70
2022-12-19T15:29:14.128Z,44.30
2022-12-19T15:31:47.201Z,50.70
2022-12-19T15:34:46.654Z,43.70
2022-12-19T15:37:16.604Z,40.30
2022-12-19T15:39:48.500Z,42.30
2022-12-19T15:42:27.298Z,45.00
2022-12-19T15:44:58.099Z,39.80
2022-12-19T15:47:35.642Z,40.40
2022-12-19T15:50:26.266Z,43.70
2022-12-19T15:52:59.146Z,48.50
2022-12-19T15:55:31.481Z,47.70
2022-12-19T16:00:36.491Z,45.00
2022-12-19T16:03:23.586Z,44.20
2022-12-19T16:05:56.348Z,48.00
2022-12-19T16:08:26.332Z,56.60
2022-12-19T16:11:01.832Z,55.00
2022-12-19T16:13:35.260Z,47.30
2022-12-19T16:16:16.448Z,49.20
2022-12-19T16:18:47.628Z,48.40
2022-12-19T16:21:33.682Z,52.90
2022-12-19T16:24:03.345Z,51.80
2022-12-19T16:26:37.640Z,50.30
2022-12-19T16:29:21.018Z,48.40
2022-12-19T16:31:50.211Z,52.40
2022-12-19T16:34:23.589Z,51.60
2022-12-19T16:36:52.652Z,55.30
2022-12-19T16:39:21.686Z,54.10
2022-12-19T16:41:51.105Z,48.30
2022-12-19T16:44:23.892Z,51.80
2022-12-19T16:46:52.907Z,54.20
2022-12-19T16:49:23.051Z,58.90
2022-12-19T16:51:52.259Z,52.30
2022-12-19T16:54:21.174Z,56.00
2022-12-19T16:56:56.311Z,54.90
2022-12-19T16:59:34.526Z,55.00
2022-12-19T17:02:50.934Z,54.80
2022-12-19T17:05:24.556Z,50.60
2022-12-19T17:07:54.225Z,52.00
2022-12-19T17:10:30.565Z,54.60
2022-12-19T17:13:02.299Z,53.20
2022-12-19T17:15:38.869Z,52.90
2022-12-19T17:18:23.034Z,54.80
2022-12-19T17:20:51.964Z,57.00
2022-12-19T17:23:25.428Z,54.30
2022-12-19T17:25:59.811Z,46.20
2022-12-19T17:28:30.172Z,53.20
2022-12-19T17:31:04.140Z,54.20
2022-12-19T17:33:36.774Z,53.40
2022-12-19T17:36:07.666Z,50.50
2022-12-19T17:38:36.994Z,51.50
2022-12-19T17:41:06.189Z,50.50
2022-12-19T17:43:34.981Z,54.30
2022-12-19T17:46:04.437Z,50.50
2022-12-19T17:48:33.839Z,52.80
2022-12-19T17:51:03.506Z,54.70
2022-12-19T17:53:32.405Z,56.90
2022-12-19T17:56:01.319Z,54.30
2022-12-19T17:58:30.275Z,51.30
2022-12-19T18:01:00.963Z,51.60
2022-12-19T18:03:30.559Z,52.10
2022-12-19T18:05:59.630Z,54.60
2022-12-19T18:08:32.717Z,51.50
2022-12-19T18:11:04.287Z,52.60
2022-12-19T18:13:33.677Z,51.40
2022-12-19T18:16:03.989Z,46.20
2022-12-19T18:18:36.693Z,49.60
2022-12-19T18:21:06.078Z,50.80
2022-12-19T18:23:35.176Z,49.70
2022-12-19T18:26:04.429Z,53.70
2022-12-19T18:28:34.045Z,51.80
2022-12-19T18:31:23.535Z,52.00
2022-12-19T18:33:54.819Z,50.00
2022-12-19T18:36:29.292Z,50.70
2022-12-19T18:38:58.180Z,51.30
2022-12-19T18:41:27.342Z,47.70
2022-12-19T18:43:56.329Z,50.90
2022-12-19T18:46:29.859Z,46.90
2022-12-19T18:48:58.966Z,55.00
2022-12-19T18:51:29.620Z,54.00
2022-12-19T18:53:58.811Z,55.50
2022-12-19T18:56:27.848Z,58.10
2022-12-19T18:58:59.328Z,60.80
2022-12-19T19:01:29.354Z,54.30
2022-12-19T19:03:59.683Z,51.20
2022-12-19T19:06:35.757Z,53.40
2022-12-19T19:09:17.368Z,58.40
2022-12-19T19:12:06.174Z,51.50
2022-12-19T19:14:35.123Z,52.40
2022-12-19T19:17:06.459Z,52.30
2022-12-19T19:19:35.909Z,50.10
2022-12-19T19:22:07.608Z,47.00
2022-12-19T19:24:36.955Z,49.10
2022-12-19T19:27:19.037Z,48.60
2022-12-19T19:29:48.299Z,49.90
2022-12-19T19:32:18.488Z,50.80
2022-12-19T19:34:51.766Z,46.20
2022-12-19T19:37:23.255Z,48.20
2022-12-19T19:39:52.913Z,45.90
2022-12-19T19:42:22.013Z,44.50
2022-12-19T19:44:51.086Z,44.40
2022-12-19T19:47:26.802Z,45.20
2022-12-19T19:49:57.876Z,46.60
2022-12-19T19:52:28.438Z,41.50
2022-12-19T19:54:57.889Z,45.90
2022-12-19T19:57:26.932Z,48.10
2022-12-19T19:59:55.931Z,49.70
2022-12-19T20:02:25.047Z,49.20
2022-12-19T20:04:54.510Z,50.50
2022-12-19T20:07:23.384Z,47.70
2022-12-19T20:09:53.220Z,46.00
2022-12-19T20:12:25.316Z,44.80
2022-12-19T20:14:54.649Z,46.30
2022-12-19T20:17:24.193Z,46.40
2022-12-19T20:19:53.195Z,45.00
2022-12-19T20:22:25.860Z,47.60
2022-12-19T20:24:55.210Z,43.10
2022-12-19T20:27:25.927Z,41.40
2022-12-19T20:30:00.001Z,41.80
2022-12-19T20:32:29.950Z,41.70
2022-12-19T20:34:59.492Z,43.60
2022-12-19T20:37:28.557Z,42.60
2022-12-19T20:39:58.320Z,43.10
2022-12-19T20:42:27.523Z,44.90
2022-12-19T20:44:57.642Z,44.10
2022-12-19T20:47:28.651Z,50.00
2022-12-19T20:49:59.697Z,42.00
2022-12-19T20:52:29.240Z,53.90
2022-12-19T20:55:01.047Z,50.20
2022-12-19T20:57:30.836Z,42.30
2022-12-19T20:59:59.909Z,46.90
2022-12-19T21:02:52.604Z,49.10
2022-12-19T21:05:20.824Z,45.80
2022-12-19T21:07:49.813Z,43.20
2022-12-19T21:10:18.705Z,44.70
2022-12-19T21:12:48.375Z,43.40
2022-12-19T21:15:17.967Z,44.60
2022-12-19T21:17:47.604Z,46.70
2022-12-19T21:20:16.836Z,43.10
2022-12-19T21:22:46.959Z,44.70
2022-12-19T21:25:23.446Z,43.00
2022-12-19T21:27:55.307Z,40.60
2022-12-19T21:30:25.220Z,39.90
2022-12-19T21:32:56.888Z,40.70
2022-12-19T21:35:26.132Z,41.20
2022-12-19T21:37:55.089Z,46.80
2022-12-19T21:40:24.072Z,53.40
2022-12-19T21:42:53.087Z,44.10
2022-12-19T21:45:22.073Z,39.60
2022-12-19T21:47:51.046Z,38.10
2022-12-19T21:50:20.576Z,38.20
2022-12-19T21:52:54.342Z,35.90
2022-12-19T21:55:25.452Z,38.50
2022-12-19T21:57:57.353Z,38.50
2022-12-19T22:00:26.317Z,42.80
2022-12-19T22:03:15.152Z,44.20
2022-12-19T22:05:49.996Z,37.30
2022-12-19T22:08:23.224Z,40.20
2022-12-19T22:10:54.570Z,38.20
2022-12-19T22:13:23.999Z,42.10
2022-12-19T22:15:59.198Z,37.00
2022-12-19T22:18:28.416Z,37.40
2022-12-19T22:21:02.717Z,37.60
2022-12-19T22:23:32.959Z,36.00
2022-12-19T22:26:18.289Z,40.50
2022-12-19T22:28:52.050Z,39.20
2022-12-19T22:31:33.421Z,37.20
2022-12-19T22:34:06.979Z,32.30
2022-12-19T22:36:39.251Z,36.20
2022-12-19T22:39:17.977Z,36.00
2022-12-19T22:41:48.428Z,37.00
2022-12-19T22:44:26.768Z,35.50
2022-12-19T22:46:56.040Z,33.60
2022-12-19T22:49:25.124Z,38.50
2022-12-19T22:51:54.080Z,38.00
2022-12-19T22:54:23.283Z,38.10
2022-12-19T22:56:52.722Z,36.00
2022-12-19T22:59:29.418Z,35.50
2022-12-19T23:01:58.722Z,35.50
2022-12-19T23:04:28.035Z,38.00
2022-12-19T23:06:57.111Z,40.00
2022-12-19T23:09:26.325Z,33.00
2022-12-19T23:11:55.539Z,36.70
2022-12-19T23:14:24.399Z,35.60
2022-12-19T23:16:53.409Z,34.90
2022-12-19T23:19:22.483Z,35.40
2022-12-19T23:21:51.581Z,37.50
2022-12-19T23:24:22.968Z,34.50
2022-12-19T23:26:52.073Z,36.40
2022-12-19T23:29:21.562Z,35.40
2022-12-19T23:31:50.629Z,37.40
2022-12-19T23:34:23.417Z,38.30
2022-12-19T23:37:13.023Z,36.00
2022-12-19T23:39:42.650Z,34.10
2022-12-19T23:42:12.369Z,36.20
2022-12-19T23:44:41.440Z,35.00
2022-12-19T23:47:13.134Z,35.30
2022-12-19T23:49:42.489Z,34.40
2022-12-19T23:52:11.696Z,41.10
2022-12-19T23:54:40.781Z,37.60
2022-12-19T23:57:09.903Z,35.70
2022-12-19T23:59:38.810Z,36.90
